Huesca, Spain
Current Conditions -  °F | °C
As of 2:00 AM on Thursday 23 Oct 2014 (Local Time) from LEHC Reporting Station
Clear Clear  
Wind Chill: 42°   Ceiling: Unl
Heat Index: 46°   Visibility: 6mi
Dew Point: 36°   Wind: 9mph
Humidity: 66%   Direction: 250°WSW
Pressure: 30.24"   Gusts: NA
Location:  42.14°N, 0.41°W
Report Text: LEHC 230000Z AUTO 25008KT CAVOK 08/02 Q1024
Loading
Personal Weather Stations






























Interactive Weather Map
Tropical Storm Tracking
New forecast layout! Learn more

10-Day Weather Forecast

Advertisements
Track Severe Weather on mobile